Time;durP1;ratioP1;P1;durP2;ratioP2;P2;SDS_P1;SDS_P2;PMS_P1;PMS_P2;Temp;Humidity;BMP_temperature;BMP_pressure;BME280_temperature;BME280_humidity;BME280_pressure;Samples;Min_cycle;Max_cycle;Signal;HPM_P1;HPM_P2
2023/09/03 00:00:07;;;;;;;;;3.00;3.00;;;;;;;;5027596;28;8841;-85
2023/09/03 00:02:35;;;;;;;;;4.80;4.80;;;;;;;;5028310;28;8856;-84
2023/09/03 00:05:03;;;;;;;;;4.80;4.80;;;;;;;;5028837;28;8856;-84
2023/09/03 00:07:31;;;;;;;;;4.40;4.40;;;;;;;;5028117;28;8864;-84
2023/09/03 00:09:59;;;;;;;;;6.00;4.20;;;;;;;;5027526;28;9643;-84
2023/09/03 00:12:26;;;;;;;;;3.00;3.00;;;;;;;;5017445;28;8864;-84
2023/09/03 00:14:55;;;;;;;;;4.00;4.00;;;;;;;;5029380;28;8860;-84
2023/09/03 00:17:23;;;;;;;;;7.00;5.80;;;;;;;;5029830;28;8848;-84
2023/09/03 00:19:50;;;;;;;;;6.00;6.00;;;;;;;;5029009;28;9665;-83
2023/09/03 00:22:18;;;;;;;;;5.60;5.60;;;;;;;;5028633;28;8849;-84
2023/09/03 00:24:47;;;;;;;;;4.80;4.80;;;;;;;;5027876;28;8892;-83
2023/09/03 00:27:14;;;;;;;;;5.00;5.00;;;;;;;;5028285;28;8837;-84
2023/09/03 00:29:41;;;;;;;;;4.00;4.00;;;;;;;;5027774;28;8852;-83
2023/09/03 00:32:08;;;;;;;;;5.20;5.20;;;;;;;;5027838;28;8819;-84
2023/09/03 00:34:36;;;;;;;;;6.80;6.80;;;;;;;;5028074;28;9607;-83
2023/09/03 00:37:03;;;;;;;;;3.80;3.80;;;;;;;;5028221;28;8872;-83
2023/09/03 00:39:30;;;;;;;;;7.80;6.20;;;;;;;;5028039;28;8851;-82
2023/09/03 00:41:59;;;;;;;;;4.60;3.80;;;;;;;;5028623;28;8867;-84
2023/09/03 00:44:26;;;;;;;;;5.00;5.00;;;;;;;;5028354;28;8890;-84
2023/09/03 00:46:54;;;;;;;;;3.40;3.40;;;;;;;;5028512;28;8860;-84
2023/09/03 00:49:23;;;;;;;;;7.20;5.00;;;;;;;;5027071;28;8903;-83
2023/09/03 00:51:53;;;;;;;;;6.80;6.80;;;;;;;;5028376;28;9429;-84
2023/09/03 00:54:21;;;;;;;;;4.60;4.60;;;;;;;;5027810;28;8862;-84
2023/09/03 00:56:50;;;;;;;;;5.60;5.00;;;;;;;;5028144;28;8864;-84
2023/09/03 00:59:20;;;;;;;;;7.60;6.80;;;;;;;;5027822;28;8872;-84
2023/09/03 01:01:49;;;;;;;;;4.80;4.80;;;;;;;;5027676;28;8934;-83
2023/09/03 01:04:18;;;;;;;;;5.00;5.00;;;;;;;;5028035;28;8982;-85
2023/09/03 01:06:45;;;;;;;;;4.60;4.60;;;;;;;;5028016;28;9786;-84
2023/09/03 01:09:13;;;;;;;;;3.80;3.80;;;;;;;;5016764;28;8876;-84
2023/09/03 01:11:48;;;;;;;;;6.60;5.00;;;;;;;;5029492;28;8902;-85
2023/09/03 01:14:25;;;;;;;;;3.80;3.80;;;;;;;;5031772;28;8853;-84
2023/09/03 01:16:56;;;;;;;;;1.80;1.80;;;;;;;;5032184;28;8880;-85
2023/09/03 01:20:00;;;;;;;;;3.80;3.80;;;;;;;;5033164;28;8984;-85
2023/09/03 01:22:42;;;;;;;;;5.40;5.40;;;;;;;;5028050;28;8884;-85
2023/09/03 01:25:32;;;;;;;;;4.60;4.60;;;;;;;;5035648;28;8896;-84
2023/09/03 01:28:14;;;;;;;;;7.40;5.80;;;;;;;;5029808;28;8874;-84
2023/09/03 01:30:42;;;;;;;;;5.60;5.60;;;;;;;;5025000;28;8780;-84
2023/09/03 01:33:10;;;;;;;;;8.00;8.00;;;;;;;;5016037;28;8898;-84
2023/09/03 01:35:37;;;;;;;;;7.40;7.40;;;;;;;;5030749;28;8864;-84
2023/09/03 01:38:05;;;;;;;;;8.60;8.60;;;;;;;;5031176;28;9633;-84
2023/09/03 01:40:33;;;;;;;;;5.20;5.20;;;;;;;;5031115;28;8878;-84
2023/09/03 01:43:00;;;;;;;;;5.60;5.60;;;;;;;;5031588;28;8872;-85
2023/09/03 01:45:36;;;;;;;;;7.60;7.00;;;;;;;;5019513;28;8865;-85
2023/09/03 01:48:10;;;;;;;;;6.60;6.60;;;;;;;;5019214;28;9708;-84
2023/09/03 01:50:44;;;;;;;;;6.40;6.40;;;;;;;;5031353;28;8878;-85
2023/09/03 01:53:18;;;;;;;;;6.00;6.00;;;;;;;;5031867;28;8898;-84
2023/09/03 01:55:47;;;;;;;;;6.40;6.40;;;;;;;;5032794;28;8865;-84
2023/09/03 01:58:14;;;;;;;;;9.40;8.00;;;;;;;;5031650;28;8856;-84
2023/09/03 02:00:44;;;;;;;;;7.80;7.80;;;;;;;;5045494;28;8812;-84
2023/09/03 02:03:11;;;;;;;;;9.00;9.00;;;;;;;;5030280;28;8856;-84
2023/09/03 02:05:39;;;;;;;;;7.00;7.00;;;;;;;;5030760;28;8902;-84
2023/09/03 02:08:06;;;;;;;;;9.00;9.00;;;;;;;;5030294;28;8856;-84
2023/09/03 02:10:34;;;;;;;;;10.20;10.20;;;;;;;;5030648;28;8875;-83
2023/09/03 02:13:02;;;;;;;;;10.00;10.00;;;;;;;;5045660;28;8856;-83
2023/09/03 02:15:29;;;;;;;;;8.80;8.80;;;;;;;;5030733;28;8995;-83
2023/09/03 02:17:57;;;;;;;;;8.80;8.80;;;;;;;;5029864;28;8882;-83
2023/09/03 02:20:25;;;;;;;;;9.80;9.80;;;;;;;;5029930;28;8866;-83
2023/09/03 02:22:52;;;;;;;;;11.80;11.80;;;;;;;;5029639;28;9479;-83
2023/09/03 02:25:19;;;;;;;;;9.60;9.60;;;;;;;;5030297;28;9006;-84
2023/09/03 02:27:47;;;;;;;;;10.40;10.40;;;;;;;;5018434;28;8899;-84
2023/09/03 02:30:14;;;;;;;;;8.80;8.80;;;;;;;;5028916;28;8856;-84
2023/09/03 02:32:41;;;;;;;;;7.20;7.20;;;;;;;;5029549;28;8859;-84
2023/09/03 02:35:10;;;;;;;;;8.20;8.00;;;;;;;;5029854;28;8877;-83
2023/09/03 02:37:37;;;;;;;;;10.20;9.20;;;;;;;;5029541;28;8878;-84
2023/09/03 02:40:05;;;;;;;;;10.80;10.80;;;;;;;;5029832;28;8868;-83
2023/09/03 02:42:32;;;;;;;;;9.40;9.40;;;;;;;;5018752;28;8880;-84
2023/09/03 02:44:59;;;;;;;;;9.80;8.40;;;;;;;;5030123;28;8852;-83
2023/09/03 02:47:27;;;;;;;;;8.80;8.80;;;;;;;;5030015;28;8890;-83
2023/09/03 02:49:55;;;;;;;;;12.00;10.80;;;;;;;;5030160;28;8886;-83
2023/09/03 02:52:24;;;;;;;;;9.40;9.40;;;;;;;;5031034;28;8906;-84
2023/09/03 02:54:51;;;;;;;;;8.20;8.00;;;;;;;;5033007;28;8907;-84
2023/09/03 02:57:18;;;;;;;;;12.00;9.40;;;;;;;;5034910;28;8854;-84
2023/09/03 02:59:45;;;;;;;;;13.40;12.20;;;;;;;;5032855;28;8883;-84
2023/09/03 03:02:13;;;;;;;;;12.60;9.20;;;;;;;;5024727;28;8810;-84
2023/09/03 03:04:40;;;;;;;;;12.00;12.00;;;;;;;;5023113;28;8832;-83
2023/09/03 03:07:07;;;;;;;;;11.60;11.60;;;;;;;;5031824;28;8869;-84
2023/09/03 03:09:36;;;;;;;;;15.00;15.00;;;;;;;;5028297;28;8980;-84
2023/09/03 03:12:05;;;;;;;;;17.20;15.60;;;;;;;;5029516;28;9653;-84
2023/09/03 03:14:35;;;;;;;;;14.80;14.80;;;;;;;;5028938;28;8884;-84
2023/09/03 03:17:06;;;;;;;;;14.00;14.00;;;;;;;;5028222;28;8886;-84
2023/09/03 03:19:34;;;;;;;;;21.20;17.00;;;;;;;;5029428;28;8860;-84
2023/09/03 03:22:01;;;;;;;;;17.80;17.80;;;;;;;;5029480;28;8868;-84
2023/09/03 03:24:28;;;;;;;;;16.60;14.80;;;;;;;;5028216;28;8884;-84
2023/09/03 03:26:57;;;;;;;;;15.80;14.20;;;;;;;;5027437;28;8856;-83
2023/09/03 03:29:24;;;;;;;;;16.25;16.25;;;;;;;;5029079;28;8860;-84
2023/09/03 03:31:53;;;;;;;;;17.25;17.25;;;;;;;;5028075;28;8800;-84
2023/09/03 03:34:20;;;;;;;;;19.00;19.00;;;;;;;;5028601;28;8863;-83
2023/09/03 03:36:47;;;;;;;;;18.20;18.20;;;;;;;;5030403;28;9361;-83
2023/09/03 03:39:15;;;;;;;;;15.60;15.60;;;;;;;;5029332;28;8864;-84
2023/09/03 03:41:42;;;;;;;;;16.25;16.25;;;;;;;;5027477;28;9607;-83
2023/09/03 03:44:10;;;;;;;;;15.60;15.20;;;;;;;;5017136;28;8991;-84
2023/09/03 03:46:38;;;;;;;;;18.40;18.40;;;;;;;;5028900;28;8860;-84
2023/09/03 03:49:05;;;;;;;;;15.80;15.80;;;;;;;;5027481;28;8868;-83
2023/09/03 03:51:33;;;;;;;;;16.75;16.75;;;;;;;;5027482;28;8864;-83
2023/09/03 03:54:03;;;;;;;;;11.40;11.40;;;;;;;;5028665;28;8852;-84
2023/09/03 03:56:30;;;;;;;;;17.80;15.40;;;;;;;;5027652;28;8856;-84
2023/09/03 03:58:57;;;;;;;;;14.20;14.20;;;;;;;;5028219;28;8872;-85
2023/09/03 04:01:26;;;;;;;;;20.40;17.20;;;;;;;;5027371;28;8836;-84
2023/09/03 04:03:55;;;;;;;;;19.00;19.00;;;;;;;;5028028;28;8880;-83
2023/09/03 04:06:22;;;;;;;;;17.20;17.20;;;;;;;;5028101;28;8844;-83
2023/09/03 04:08:50;;;;;;;;;15.20;14.20;;;;;;;;5028193;28;9343;-84
2023/09/03 04:11:19;;;;;;;;;14.80;14.80;;;;;;;;5028006;28;9598;-83
2023/09/03 04:13:46;;;;;;;;;15.00;15.00;;;;;;;;5028112;28;8864;-83
2023/09/03 04:16:15;;;;;;;;;13.40;13.40;;;;;;;;5027626;28;9615;-84
2023/09/03 04:18:44;;;;;;;;;18.60;18.60;;;;;;;;5027478;28;8876;-84
2023/09/03 04:21:11;;;;;;;;;16.20;16.20;;;;;;;;5027940;28;8906;-84
2023/09/03 04:23:38;;;;;;;;;16.20;16.20;;;;;;;;5028157;28;8868;-84
2023/09/03 04:26:06;;;;;;;;;14.60;14.60;;;;;;;;5027649;28;9733;-83
2023/09/03 04:28:33;;;;;;;;;17.60;16.80;;;;;;;;5028575;28;8949;-83
2023/09/03 04:31:04;;;;;;;;;17.00;14.60;;;;;;;;5027820;28;8796;-84
2023/09/03 04:33:31;;;;;;;;;16.80;16.80;;;;;;;;5031425;28;8860;-82
2023/09/03 04:36:04;;;;;;;;;16.40;16.40;;;;;;;;5032574;28;8923;-84
2023/09/03 04:38:31;;;;;;;;;17.50;17.50;;;;;;;;5027387;28;8950;-83
2023/09/03 04:41:04;;;;;;;;;17.00;16.40;;;;;;;;5033259;28;8879;-84
2023/09/03 04:43:32;;;;;;;;;20.25;20.25;;;;;;;;5032919;28;8890;-83
2023/09/03 04:45:59;;;;;;;;;19.80;18.00;;;;;;;;5030728;28;8907;-83
2023/09/03 04:48:27;;;;;;;;;18.25;18.25;;;;;;;;5027326;28;8868;-83
2023/09/03 04:50:54;;;;;;;;;14.20;14.20;;;;;;;;5027636;28;8884;-83
2023/09/03 04:53:23;;;;;;;;;18.00;17.00;;;;;;;;5027368;28;8844;-83
2023/09/03 04:55:50;;;;;;;;;15.60;14.60;;;;;;;;5028500;28;8868;-84
2023/09/03 04:58:17;;;;;;;;;16.40;16.40;;;;;;;;5031002;28;8884;-84
2023/09/03 05:00:44;;;;;;;;;19.40;17.80;;;;;;;;5030813;28;8830;-84
2023/09/03 05:03:12;;;;;;;;;16.50;16.00;;;;;;;;5031270;28;8852;-84
2023/09/03 05:05:42;;;;;;;;;15.40;15.40;;;;;;;;5031452;28;8878;-84
2023/09/03 05:08:10;;;;;;;;;19.50;19.50;;;;;;;;5031064;28;8953;-83
2023/09/03 05:10:39;;;;;;;;;17.60;17.60;;;;;;;;5031059;28;8874;-83
2023/09/03 05:13:09;;;;;;;;;16.60;16.60;;;;;;;;5032360;28;8963;-83
2023/09/03 05:15:37;;;;;;;;;16.40;15.00;;;;;;;;5033048;28;8968;-83
2023/09/03 05:18:07;;;;;;;;;13.20;12.80;;;;;;;;5030796;28;8994;-83
2023/09/03 05:20:38;;;;;;;;;13.80;13.80;;;;;;;;5030709;28;8884;-84
2023/09/03 05:23:05;;;;;;;;;13.40;11.60;;;;;;;;5019448;28;8884;-83
2023/09/03 05:25:33;;;;;;;;;17.00;17.00;;;;;;;;5030653;28;8852;-83
2023/09/03 05:28:03;;;;;;;;;12.60;12.60;;;;;;;;5031273;28;8848;-84
2023/09/03 05:30:31;;;;;;;;;18.25;18.25;;;;;;;;5030096;28;8805;-83
2023/09/03 05:32:58;;;;;;;;;16.00;16.00;;;;;;;;5030869;28;8875;-84
2023/09/03 05:35:25;;;;;;;;;19.00;19.00;;;;;;;;5030095;28;8972;-83
2023/09/03 05:37:53;;;;;;;;;22.50;21.75;;;;;;;;5030638;28;8930;-83
2023/09/03 05:40:22;;;;;;;;;21.50;21.00;;;;;;;;5030231;28;8979;-83
2023/09/03 05:42:50;;;;;;;;;20.00;20.00;;;;;;;;5030668;28;8872;-83
2023/09/03 05:45:18;;;;;;;;;16.50;14.75;;;;;;;;5029701;28;8864;-83
2023/09/03 05:47:46;;;;;;;;;21.50;20.75;;;;;;;;5030547;28;8943;-83
2023/09/03 05:50:13;;;;;;;;;22.00;22.00;;;;;;;;5029722;28;8868;-83
2023/09/03 05:52:43;;;;;;;;;21.00;21.00;;;;;;;;5030378;28;8990;-84
2023/09/03 05:55:11;;;;;;;;;18.75;18.75;;;;;;;;5030272;28;8856;-83
2023/09/03 05:57:40;;;;;;;;;21.75;21.75;;;;;;;;5030763;28;8879;-84
2023/09/03 06:00:09;;;;;;;;;27.25;24.75;;;;;;;;5029603;28;8844;-83
2023/09/03 06:02:39;;;;;;;;;22.25;22.25;;;;;;;;5030553;28;8890;-83
2023/09/03 06:05:07;;;;;;;;;17.50;17.50;;;;;;;;5030069;28;8851;-83
2023/09/03 06:07:35;;;;;;;;;25.75;25.75;;;;;;;;5030451;28;9075;-84
2023/09/03 06:10:02;;;;;;;;;25.00;23.75;;;;;;;;5033160;28;8861;-84
2023/09/03 06:12:29;;;;;;;;;22.00;21.50;;;;;;;;5034293;28;8860;-82
2023/09/03 06:14:56;;;;;;;;;21.75;21.25;;;;;;;;5021832;28;8880;-73
2023/09/03 06:17:25;;;;;;;;;23.50;22.75;;;;;;;;5030584;28;8864;-73
2023/09/03 06:19:54;;;;;;;;;26.00;25.50;;;;;;;;5031253;28;8910;-74
2023/09/03 06:22:23;;;;;;;;;31.00;26.00;;;;;;;;5032996;28;8890;-73
2023/09/03 06:24:50;;;;;;;;;25.25;25.25;;;;;;;;5029644;28;8867;-73
2023/09/03 06:27:17;;;;;;;;;27.50;27.50;;;;;;;;5028687;28;8963;-73
2023/09/03 06:29:44;;;;;;;;;33.75;29.50;;;;;;;;5028655;28;8852;-74
2023/09/03 06:32:11;;;;;;;;;24.75;24.75;;;;;;;;5031493;28;8800;-73
2023/09/03 06:34:39;;;;;;;;;25.00;23.25;;;;;;;;5028691;28;8860;-73
2023/09/03 06:37:08;;;;;;;;;22.00;19.75;;;;;;;;5028467;28;8852;-72
2023/09/03 06:39:37;;;;;;;;;21.75;21.75;;;;;;;;5028734;28;8864;-73
2023/09/03 06:42:04;;;;;;;;;19.00;19.00;;;;;;;;5028762;28;8887;-74
2023/09/03 06:44:36;;;;;;;;;22.80;21.80;;;;;;;;5028670;28;9779;-74
2023/09/03 06:47:03;;;;;;;;;18.60;18.60;;;;;;;;5028187;28;9010;-74
2023/09/03 06:49:33;;;;;;;;;18.40;18.40;;;;;;;;5028520;28;8879;-73
2023/09/03 06:52:01;;;;;;;;;17.40;17.40;;;;;;;;4995124;28;8852;-72
2023/09/03 06:54:29;;;;;;;;;17.40;16.00;;;;;;;;5027874;28;8872;-72
2023/09/03 06:56:56;;;;;;;;;17.80;17.80;;;;;;;;5028145;28;9634;-72
2023/09/03 06:59:24;;;;;;;;;14.80;14.80;;;;;;;;5028362;28;8854;-72
2023/09/03 07:01:51;;;;;;;;;18.60;18.60;;;;;;;;5027402;28;8840;-73
2023/09/03 07:04:20;;;;;;;;;17.60;17.40;;;;;;;;5028092;28;9647;-73
2023/09/03 07:06:47;;;;;;;;;16.00;16.00;;;;;;;;5027886;28;8888;-73
2023/09/03 07:09:15;;;;;;;;;17.00;15.60;;;;;;;;5028012;28;8948;-74
2023/09/03 07:11:43;;;;;;;;;16.40;16.40;;;;;;;;5015651;28;9030;-73
2023/09/03 07:14:10;;;;;;;;;15.60;14.80;;;;;;;;5027981;28;8894;-72
2023/09/03 07:16:38;;;;;;;;;14.80;13.00;;;;;;;;5028088;28;8883;-72
2023/09/03 07:19:05;;;;;;;;;11.40;11.40;;;;;;;;5027707;28;9018;-72
2023/09/03 07:21:34;;;;;;;;;11.20;10.40;;;;;;;;5028067;28;8852;-74
2023/09/03 07:24:04;;;;;;;;;9.20;9.20;;;;;;;;5027648;28;8898;-74
2023/09/03 07:26:32;;;;;;;;;8.40;8.40;;;;;;;;5027719;28;8854;-74
2023/09/03 07:29:00;;;;;;;;;8.40;7.20;;;;;;;;5027922;28;8882;-73
2023/09/03 07:31:27;;;;;;;;;7.40;7.40;;;;;;;;5027090;28;9599;-74
2023/09/03 07:33:55;;;;;;;;;8.80;8.00;;;;;;;;5027713;28;8957;-73
2023/09/03 07:36:22;;;;;;;;;10.00;10.00;;;;;;;;5024780;28;8856;-72
2023/09/03 07:38:49;;;;;;;;;7.40;7.40;;;;;;;;5025137;28;8849;-72
2023/09/03 07:41:16;;;;;;;;;7.80;7.20;;;;;;;;5027800;28;8840;-71
2023/09/03 07:43:43;;;;;;;;;7.40;7.40;;;;;;;;5027450;28;8848;-72
2023/09/03 07:46:12;;;;;;;;;5.40;5.40;;;;;;;;5028016;28;8852;-72
2023/09/03 07:48:39;;;;;;;;;7.80;7.80;;;;;;;;5027976;28;8894;-72
2023/09/03 07:51:06;;;;;;;;;7.20;7.20;;;;;;;;5029956;28;8976;-75
2023/09/03 07:53:33;;;;;;;;;6.60;6.60;;;;;;;;5029718;28;8884;-74
2023/09/03 07:56:03;;;;;;;;;7.80;7.80;;;;;;;;5030219;28;8856;-73
2023/09/03 07:58:30;;;;;;;;;8.00;6.00;;;;;;;;5030796;28;8856;-72
2023/09/03 08:00:57;;;;;;;;;8.00;8.00;;;;;;;;5029330;28;8812;-82
2023/09/03 08:03:32;;;;;;;;;8.60;8.60;;;;;;;;5026842;28;8856;-83
2023/09/03 08:06:00;;;;;;;;;7.60;6.80;;;;;;;;5027813;28;8880;-82
2023/09/03 08:08:30;;;;;;;;;4.40;4.40;;;;;;;;5026308;28;9006;-83
2023/09/03 08:11:00;;;;;;;;;7.60;6.40;;;;;;;;5026647;28;8903;-82
2023/09/03 08:13:28;;;;;;;;;8.00;8.00;;;;;;;;5016994;28;8872;-82
2023/09/03 08:15:56;;;;;;;;;5.80;5.80;;;;;;;;5026901;28;8847;-82
2023/09/03 08:18:23;;;;;;;;;7.00;7.00;;;;;;;;5027445;28;8868;-81
2023/09/03 08:20:54;;;;;;;;;6.80;6.80;;;;;;;;5027235;28;8852;-86
2023/09/03 08:23:21;;;;;;;;;7.60;6.60;;;;;;;;5028201;28;8976;-82
2023/09/03 08:25:48;;;;;;;;;4.40;4.40;;;;;;;;5028741;28;8978;-85
2023/09/03 08:28:16;;;;;;;;;4.00;4.00;;;;;;;;5029050;28;9759;-81
2023/09/03 08:30:44;;;;;;;;;3.00;3.00;;;;;;;;5029528;28;8780;-83
2023/09/03 08:33:13;;;;;;;;;5.20;5.20;;;;;;;;5032733;28;8992;-82
2023/09/03 08:35:40;;;;;;;;;6.40;5.60;;;;;;;;5030684;28;8848;-84
2023/09/03 08:38:09;;;;;;;;;5.60;5.60;;;;;;;;5032374;28;8864;-85
2023/09/03 08:40:37;;;;;;;;;1.20;1.20;;;;;;;;5031396;28;8900;-83
2023/09/03 08:43:09;;;;;;;;;6.00;5.00;;;;;;;;5032122;28;8864;-84
2023/09/03 08:45:42;;;;;;;;;3.00;3.00;;;;;;;;5031025;28;8941;-83
2023/09/03 08:48:09;;;;;;;;;4.20;3.60;;;;;;;;5031360;28;8880;-82
2023/09/03 08:50:39;;;;;;;;;4.60;4.60;;;;;;;;5020115;28;8882;-83
2023/09/03 08:53:11;;;;;;;;;3.20;3.20;;;;;;;;5031668;28;8848;-83
2023/09/03 08:55:42;;;;;;;;;4.20;4.20;;;;;;;;5031470;28;8876;-82
2023/09/03 08:58:09;;;;;;;;;2.40;2.40;;;;;;;;5031119;28;8911;-82
2023/09/03 09:00:38;;;;;;;;;3.00;3.00;;;;;;;;5030662;28;8792;-83
2023/09/03 09:03:23;;;;;;;;;4.20;2.40;;;;;;;;5031003;28;8848;-83
2023/09/03 09:05:50;;;;;;;;;5.40;5.40;;;;;;;;5031443;28;9661;-81
2023/09/03 09:08:19;;;;;;;;;6.00;4.60;;;;;;;;5029939;28;8990;-83
2023/09/03 09:10:48;;;;;;;;;2.00;2.00;;;;;;;;5030841;28;8853;-83
2023/09/03 09:13:21;;;;;;;;;4.00;4.00;;;;;;;;5031309;28;8903;-85
2023/09/03 09:15:49;;;;;;;;;2.60;2.60;;;;;;;;5031258;28;8852;-84
2023/09/03 09:18:17;;;;;;;;;3.60;3.60;;;;;;;;5031339;28;8848;-87
2023/09/03 09:20:45;;;;;;;;;2.20;2.20;;;;;;;;5031249;28;8943;-81
2023/09/03 09:23:12;;;;;;;;;2.00;2.00;;;;;;;;5033122;28;8852;-84
2023/09/03 09:25:42;;;;;;;;;3.20;3.20;;;;;;;;5035178;28;8908;-83
2023/09/03 09:28:15;;;;;;;;;2.00;2.00;;;;;;;;5037506;28;8856;-84
2023/09/03 09:30:56;;;;;;;;;0.00;0.00;;;;;;;;5035194;28;9706;-83
2023/09/03 09:33:26;;;;;;;;;1.80;1.80;;;;;;;;5035646;28;8841;-83
2023/09/03 09:35:53;;;;;;;;;2.00;2.00;;;;;;;;5030566;28;8908;-82
2023/09/03 09:38:35;;;;;;;;;2.00;2.00;;;;;;;;5030505;28;8922;-82
2023/09/03 09:41:21;;;;;;;;;1.00;1.00;;;;;;;;5020452;28;8867;-86
2023/09/03 09:43:48;;;;;;;;;2.60;2.60;;;;;;;;5030380;28;9635;-83
2023/09/03 09:46:33;;;;;;;;;1.40;1.40;;;;;;;;5030306;28;8864;-83
2023/09/03 09:49:02;;;;;;;;;3.40;3.40;;;;;;;;5019059;28;8883;-85
2023/09/03 09:51:33;;;;;;;;;1.80;1.80;;;;;;;;5030292;28;8862;-85
2023/09/03 09:54:04;;;;;;;;;2.00;2.00;;;;;;;;5030468;28;8898;-85
2023/09/03 09:56:34;;;;;;;;;2.40;2.40;;;;;;;;5029841;28;8870;-82
2023/09/03 09:59:05;;;;;;;;;2.00;2.00;;;;;;;;5030866;28;8859;-82
2023/09/03 10:01:43;;;;;;;;;2.00;2.00;;;;;;;;5029378;28;8812;-83
2023/09/03 10:04:18;;;;;;;;;2.80;2.80;;;;;;;;5031090;28;8876;-82
2023/09/03 10:06:45;;;;;;;;;1.80;1.80;;;;;;;;5029613;28;9003;-80
2023/09/03 10:09:12;;;;;;;;;1.00;1.00;;;;;;;;5029972;28;8892;-82
2023/09/03 10:11:41;;;;;;;;;1.00;1.00;;;;;;;;5029996;28;8892;-83
2023/09/03 10:14:08;;;;;;;;;3.40;2.00;;;;;;;;5030554;28;8848;-82
2023/09/03 10:16:36;;;;;;;;;2.20;2.20;;;;;;;;5030340;28;9646;-87
2023/09/03 10:19:04;;;;;;;;;3.00;3.00;;;;;;;;5031732;28;9667;-88
2023/09/03 10:21:32;;;;;;;;;33.80;30.60;;;;;;;;5030485;28;8860;-81
2023/09/03 10:24:05;;;;;;;;;1.60;1.60;;;;;;;;5028798;28;8841;-83
2023/09/03 10:26:38;;;;;;;;;2.40;2.40;;;;;;;;5020324;28;8886;-80
2023/09/03 10:29:09;;;;;;;;;2.00;2.00;;;;;;;;5029897;28;8841;-84
2023/09/03 10:31:39;;;;;;;;;2.00;2.00;;;;;;;;5029326;28;8804;-80
2023/09/03 10:34:09;;;;;;;;;2.00;2.00;;;;;;;;5027016;28;8872;-86
2023/09/03 10:36:37;;;;;;;;;1.00;1.00;;;;;;;;5029912;28;8950;-87
2023/09/03 10:39:23;;;;;;;;;1.20;1.20;;;;;;;;5028976;28;8859;-86
2023/09/03 10:41:51;;;;;;;;;1.00;1.00;;;;;;;;5027352;28;8979;-84
2023/09/03 10:44:19;;;;;;;;;2.00;2.00;;;;;;;;5029740;28;8989;-82
2023/09/03 10:47:00;;;;;;;;;2.00;2.00;;;;;;;;5029035;28;8845;-80
2023/09/03 10:49:41;;;;;;;;;3.00;3.00;;;;;;;;5029091;28;8880;-85
2023/09/03 10:52:37;;;;;;;;;0.60;0.60;;;;;;;;5028145;28;8857;-83
2023/09/03 10:55:19;;;;;;;;;1.00;1.00;;;;;;;;5028401;28;8879;-83
2023/09/03 10:57:47;;;;;;;;;1.00;1.00;;;;;;;;5030157;28;8874;-83
2023/09/03 11:00:21;;;;;;;;;1.00;1.00;;;;;;;;5028243;28;8868;-80
2023/09/03 11:02:48;;;;;;;;;1.20;1.20;;;;;;;;5030942;28;8880;-82
2023/09/03 11:05:19;;;;;;;;;1.00;1.00;;;;;;;;5032834;28;8941;-81
2023/09/03 11:08:29;;;;;;;;;1.00;1.00;;;;;;;;5033427;28;8887;-82
2023/09/03 11:11:01;;;;;;;;;1.00;1.00;;;;;;;;5032113;28;8857;-80
2023/09/03 11:13:37;;;;;;;;;0.00;0.00;;;;;;;;5032060;28;8849;-81
2023/09/03 11:16:05;;;;;;;;;3.00;3.00;;;;;;;;5028388;28;8856;-81
2023/09/03 11:18:33;;;;;;;;;0.80;0.80;;;;;;;;5028060;28;8872;-80
2023/09/03 11:21:00;;;;;;;;;1.00;1.00;;;;;;;;5028484;28;8886;-86
2023/09/03 11:23:30;;;;;;;;;1.60;1.60;;;;;;;;5027676;28;8876;-81
2023/09/03 11:25:57;;;;;;;;;3.00;3.00;;;;;;;;5027987;28;8844;-83
2023/09/03 11:28:24;;;;;;;;;2.20;2.20;;;;;;;;5028553;28;9652;-83
2023/09/03 11:31:00;;;;;;;;;2.00;2.00;;;;;;;;5019112;28;8931;-85
2023/09/03 11:33:29;;;;;;;;;4.60;4.60;;;;;;;;5028532;28;8876;-86
2023/09/03 11:35:59;;;;;;;;;4.00;4.00;;;;;;;;5028837;28;8862;-84
2023/09/03 11:38:27;;;;;;;;;2.20;2.20;;;;;;;;5027961;28;8849;-83
2023/09/03 11:40:58;;;;;;;;;1.00;1.00;;;;;;;;5029620;28;8856;-84
2023/09/03 11:43:26;;;;;;;;;2.00;2.00;;;;;;;;5029575;28;8980;-83
2023/09/03 11:45:53;;;;;;;;;1.00;1.00;;;;;;;;5029060;28;8918;-83
2023/09/03 11:48:32;;;;;;;;;1.40;1.40;;;;;;;;5028321;28;8880;-83
2023/09/03 11:50:59;;;;;;;;;1.20;1.20;;;;;;;;5028855;28;8860;-84
2023/09/03 11:53:40;;;;;;;;;1.00;1.00;;;;;;;;5024137;28;9595;-86
2023/09/03 11:56:12;;;;;;;;;1.00;1.00;;;;;;;;5021959;28;8974;-81
2023/09/03 11:58:42;;;;;;;;;1.00;1.00;;;;;;;;5027623;28;8972;-88
2023/09/03 12:01:10;;;;;;;;;0.80;0.80;;;;;;;;5026419;28;8806;-83
2023/09/03 12:03:39;;;;;;;;;1.40;1.40;;;;;;;;5028383;28;8842;-83
2023/09/03 12:06:06;;;;;;;;;1.00;1.00;;;;;;;;5027143;28;8865;-83
2023/09/03 12:08:36;;;;;;;;;0.20;0.20;;;;;;;;5027755;28;8872;-84
2023/09/03 12:11:06;;;;;;;;;1.00;1.00;;;;;;;;5027618;28;8852;-82
2023/09/03 12:13:35;;;;;;;;;1.00;1.00;;;;;;;;5027844;28;8868;-83
2023/09/03 12:16:07;;;;;;;;;1.00;1.00;;;;;;;;5027416;28;9315;-84
2023/09/03 12:18:41;;;;;;;;;1.00;1.00;;;;;;;;5028384;28;8856;-84
2023/09/03 12:21:10;;;;;;;;;2.00;2.00;;;;;;;;5028018;28;9634;-84
2023/09/03 12:23:37;;;;;;;;;0.40;0.40;;;;;;;;5027883;28;8868;-83
2023/09/03 12:26:05;;;;;;;;;1.00;1.00;;;;;;;;5027134;28;8841;-83
2023/09/03 12:28:38;;;;;;;;;0.80;0.80;;;;;;;;5027572;28;9023;-84
2023/09/03 12:31:07;;;;;;;;;1.00;1.00;;;;;;;;5015495;28;8793;-84
2023/09/03 12:33:49;;;;;;;;;1.00;1.00;;;;;;;;5027775;28;8874;-83
2023/09/03 12:36:19;;;;;;;;;0.20;0.20;;;;;;;;5027684;28;8958;-83
2023/09/03 12:38:51;;;;;;;;;1.00;1.00;;;;;;;;5026709;28;8872;-83
2023/09/03 12:41:19;;;;;;;;;1.40;1.40;;;;;;;;5030731;28;8852;-84
2023/09/03 12:43:46;;;;;;;;;0.00;0.00;;;;;;;;5031073;28;8875;-83
2023/09/03 12:46:14;;;;;;;;;2.00;1.00;;;;;;;;5030896;28;9677;-83
2023/09/03 12:48:43;;;;;;;;;0.20;0.20;;;;;;;;5032653;28;9343;-84
2023/09/03 12:51:12;;;;;;;;;2.60;0.40;;;;;;;;5027839;28;9649;-84
2023/09/03 12:53:40;;;;;;;;;1.00;1.00;;;;;;;;5027153;28;8868;-84
2023/09/03 12:56:07;;;;;;;;;1.00;1.00;;;;;;;;5027728;28;8878;-83
2023/09/03 12:58:37;;;;;;;;;1.00;1.00;;;;;;;;5027251;28;8999;-84
2023/09/03 13:01:05;;;;;;;;;1.00;1.00;;;;;;;;5026648;28;9608;-83
2023/09/03 13:03:35;;;;;;;;;2.00;2.00;;;;;;;;5026861;28;8886;-82
2023/09/03 13:06:02;;;;;;;;;0.00;0.00;;;;;;;;5027598;28;8860;-84
2023/09/03 13:08:32;;;;;;;;;2.00;2.00;;;;;;;;5027410;28;8857;-83
2023/09/03 13:11:00;;;;;;;;;1.80;1.00;;;;;;;;5027255;28;8878;-85
2023/09/03 13:13:28;;;;;;;;;1.00;1.00;;;;;;;;5027889;28;8876;-84
2023/09/03 13:15:55;;;;;;;;;1.00;1.00;;;;;;;;5027979;28;8852;-84
2023/09/03 13:18:22;;;;;;;;;0.40;0.40;;;;;;;;5032196;28;8857;-84
2023/09/03 13:20:50;;;;;;;;;1.80;1.80;;;;;;;;5031800;28;8848;-83
2023/09/03 13:23:17;;;;;;;;;1.20;1.20;;;;;;;;5031746;28;8864;-83
2023/09/03 13:25:46;;;;;;;;;2.00;2.00;;;;;;;;5030207;28;9665;-84
2023/09/03 13:28:13;;;;;;;;;1.00;1.00;;;;;;;;5030627;28;9615;-83
2023/09/03 13:30:42;;;;;;;;;0.60;0.60;;;;;;;;5029821;28;8898;-84
2023/09/03 13:33:10;;;;;;;;;2.00;2.00;;;;;;;;5030922;28;8852;-85
2023/09/03 13:35:40;;;;;;;;;2.60;2.60;;;;;;;;5029527;28;9006;-83
2023/09/03 13:38:08;;;;;;;;;1.00;1.00;;;;;;;;5024797;28;8872;-91
2023/09/03 13:40:39;;;;;;;;;1.20;1.20;;;;;;;;5031194;28;9702;-86
2023/09/03 13:43:08;;;;;;;;;2.00;2.00;;;;;;;;5031326;28;8868;-86
2023/09/03 13:45:36;;;;;;;;;1.00;1.00;;;;;;;;5030344;28;8943;-86
2023/09/03 13:48:04;;;;;;;;;1.80;1.80;;;;;;;;5031205;28;8903;-85
2023/09/03 13:50:33;;;;;;;;;1.80;1.80;;;;;;;;5029888;28;8856;-85
2023/09/03 13:53:01;;;;;;;;;1.80;1.80;;;;;;;;5030303;28;8856;-84
2023/09/03 13:55:28;;;;;;;;;1.60;1.60;;;;;;;;5030203;28;8852;-82
2023/09/03 13:57:56;;;;;;;;;1.40;1.40;;;;;;;;5030097;28;8876;-81
2023/09/03 14:00:27;;;;;;;;;1.00;1.00;;;;;;;;5029459;28;8960;-83
2023/09/03 14:02:54;;;;;;;;;0.80;0.80;;;;;;;;5028487;28;8929;-82
2023/09/03 14:05:24;;;;;;;;;1.00;1.00;;;;;;;;5029813;28;8864;-82
2023/09/03 14:07:51;;;;;;;;;1.00;1.00;;;;;;;;5029988;28;8894;-82
2023/09/03 14:10:21;;;;;;;;;1.00;1.00;;;;;;;;5030748;28;8991;-82
2023/09/03 14:12:48;;;;;;;;;3.20;2.00;;;;;;;;5031280;28;8860;-82
2023/09/03 14:15:15;;;;;;;;;1.00;1.00;;;;;;;;5032785;28;8856;-81
2023/09/03 14:17:44;;;;;;;;;0.80;0.80;;;;;;;;5034160;28;8969;-82
2023/09/03 14:20:14;;;;;;;;;1.20;1.20;;;;;;;;5034939;28;8906;-81
2023/09/03 14:22:43;;;;;;;;;1.00;1.00;;;;;;;;5033901;28;8856;-80
2023/09/03 14:25:10;;;;;;;;;0.20;0.20;;;;;;;;5035467;28;8926;-82
2023/09/03 14:27:38;;;;;;;;;3.40;2.00;;;;;;;;5030241;28;8866;-83
2023/09/03 14:30:06;;;;;;;;;3.60;2.00;;;;;;;;5029453;28;8872;-82
2023/09/03 14:32:33;;;;;;;;;1.00;1.00;;;;;;;;5028959;28;8868;-83
2023/09/03 14:35:05;;;;;;;;;1.00;1.00;;;;;;;;5030234;28;8873;-83
2023/09/03 14:37:33;;;;;;;;;1.80;1.80;;;;;;;;5035112;28;9007;-82
2023/09/03 14:40:00;;;;;;;;;0.00;0.00;;;;;;;;5029608;28;8874;-84
2023/09/03 14:42:28;;;;;;;;;0.00;0.00;;;;;;;;5029358;28;8868;-82
2023/09/03 14:44:55;;;;;;;;;0.00;0.00;;;;;;;;5029314;28;8956;-83
2023/09/03 14:47:22;;;;;;;;;0.00;0.00;;;;;;;;5017394;28;8941;-82
2023/09/03 14:49:50;;;;;;;;;1.00;1.00;;;;;;;;5029450;28;8917;-84
2023/09/03 14:52:19;;;;;;;;;0.60;0.60;;;;;;;;5030483;28;9658;-83
2023/09/03 14:54:46;;;;;;;;;1.00;1.00;;;;;;;;5030617;28;8866;-81
2023/09/03 14:57:13;;;;;;;;;1.00;1.00;;;;;;;;5029206;28;8895;-80
2023/09/03 14:59:46;;;;;;;;;1.60;0.60;;;;;;;;5028662;28;8856;-80